Time;durP1;ratioP1;P1;durP2;ratioP2;P2;SDS_P1;SDS_P2;PMS_P1;PMS_P2;Temp;Humidity;BMP_temperature;BMP_pressure;BME280_temperature;BME280_humidity;BME280_pressure;Samples;Min_cycle;Max_cycle;Signal;HPM_P1;HPM_P2
2021/12/08 00:02:02;;;;;;;2.58;1.10;;;8.40;70.60;;;;;;2586317;53;20997;-70
2021/12/08 00:04:30;;;;;;;2.42;1.00;;;8.40;70.70;;;;;;2586457;53;20973;-71
2021/12/08 00:06:57;;;;;;;2.25;0.85;;;8.30;70.60;;;;;;2341627;54;21489;-70
2021/12/08 00:09:34;;;;;;;2.60;1.10;;;8.30;70.60;;;;;;2560816;53;21024;-71
2021/12/08 00:14:49;;;;;;;3.50;0.77;;;8.30;70.50;;;;;;2304740;55;21935;-72
2021/12/08 00:17:16;;;;;;;2.20;1.05;;;8.30;70.40;;;;;;2328622;54;21012;-70
2021/12/08 00:19:43;;;;;;;1.90;0.70;;;8.30;70.40;;;;;;2332520;54;20909;-69
2021/12/08 00:22:10;;;;;;;2.40;0.98;;;8.30;70.40;;;;;;2327626;54;21001;-72
2021/12/08 00:24:37;;;;;;;2.80;0.90;;;8.20;70.40;;;;;;2325037;54;21465;-72
2021/12/08 00:27:04;;;;;;;2.95;1.10;;;8.20;70.40;;;;;;2546941;53;20931;-71
2021/12/08 00:33:01;;;;;;;3.53;1.33;;;8.10;70.00;;;;;;2586418;53;20995;-71
2021/12/08 00:35:27;;;;;;;4.47;1.45;;;8.10;70.30;;;;;;2318514;54;20988;-72
2021/12/08 00:37:57;;;;;;;2.90;1.25;;;8.10;70.50;;;;;;2586695;53;21637;-71
2021/12/08 00:40:23;;;;;;;2.80;1.23;;;8.10;70.60;;;;;;2333959;54;20970;-72
2021/12/08 00:42:51;;;;;;;3.42;1.35;;;8.10;70.80;;;;;;2332090;54;21094;-71
2021/12/08 00:45:18;;;;;;;3.42;1.30;;;8.10;70.90;;;;;;2326308;54;20939;-70
2021/12/08 00:47:45;;;;;;;2.72;1.12;;;8.00;71.50;;;;;;2555928;53;20942;-72
2021/12/08 00:50:11;;;;;;;2.80;1.00;;;8.00;70.90;;;;;;2332130;54;20946;-70
2021/12/08 00:52:39;;;;;;;3.65;1.30;;;8.00;71.00;;;;;;2586653;53;21006;-71
2021/12/08 00:55:10;;;;;;;3.95;1.10;;;8.00;71.00;;;;;;2339455;54;21004;-71
2021/12/08 00:57:42;;;;;;;2.78;1.12;;;8.00;71.10;;;;;;2576073;53;20978;-71
2021/12/08 01:00:11;;;;;;;3.00;1.05;;;8.00;71.20;;;;;;2569264;53;20945;-72
2021/12/08 01:02:39;;;;;;;2.67;1.20;;;8.00;71.20;;;;;;2340193;54;21033;-71
2021/12/08 01:05:10;;;;;;;2.55;1.00;;;8.00;71.30;;;;;;2321371;54;20944;-71
2021/12/08 01:07:39;;;;;;;2.45;0.85;;;8.00;71.30;;;;;;2340230;54;20945;-71
2021/12/08 01:10:09;;;;;;;2.67;1.30;;;8.00;71.20;;;;;;2340283;54;21434;-70
2021/12/08 01:12:46;;;;;;;3.65;1.50;;;8.00;71.20;;;;;;2325356;54;21465;-71
2021/12/08 01:15:14;;;;;;;3.45;1.30;;;8.00;71.10;;;;;;2339946;54;20992;-71
2021/12/08 01:17:40;;;;;;;4.12;1.48;;;8.00;71.10;;;;;;2340162;54;20929;-70
2021/12/08 01:20:08;;;;;;;5.50;1.40;;;7.90;70.80;;;;;;2340738;54;20949;-70
2021/12/08 01:22:36;;;;;;;2.72;1.20;;;7.90;70.60;;;;;;2586605;53;21000;-70
2021/12/08 01:25:02;;;;;;;3.12;1.33;;;7.90;70.60;;;;;;2586447;53;20945;-72
2021/12/08 01:27:30;;;;;;;2.25;1.00;;;7.80;70.70;;;;;;2340003;54;20925;-71
2021/12/08 01:29:58;;;;;;;3.95;1.40;;;7.80;70.90;;;;;;2536910;54;21018;-70
2021/12/08 01:32:26;;;;;;;3.42;1.40;;;7.80;71.00;;;;;;2565708;53;20978;-72
2021/12/08 01:34:53;;;;;;;2.95;1.20;;;7.70;71.00;;;;;;2327197;54;20961;-71
2021/12/08 01:37:20;;;;;;;2.28;0.95;;;7.70;71.20;;;;;;2321402;54;21055;-71
2021/12/08 01:39:46;;;;;;;3.83;1.45;;;7.70;71.40;;;;;;2340377;54;21000;-71
2021/12/08 01:42:17;;;;;;;5.15;1.90;;;7.70;71.50;;;;;;2340153;54;20960;-72
2021/12/08 01:47:29;;;;;;;8.18;3.72;;;7.60;71.60;;;;;;2295878;55;21783;-70
2021/12/08 01:49:55;;;;;;;8.57;4.20;;;7.70;71.60;;;;;;2558695;53;20999;-72
2021/12/08 01:52:22;;;;;;;7.80;3.78;;;7.70;71.70;;;;;;2296121;54;21002;-72
2021/12/08 01:54:48;;;;;;;7.55;3.28;;;7.60;71.60;;;;;;2312700;54;20947;-71
2021/12/08 01:57:14;;;;;;;5.78;2.65;;;7.60;71.60;;;;;;2318084;54;20981;-70
2021/12/08 01:59:41;;;;;;;5.37;2.50;;;7.60;71.60;;;;;;2294599;54;21055;-73
2021/12/08 02:02:07;;;;;;;5.43;2.05;;;7.60;71.60;;;;;;2312684;55;20952;-71
2021/12/08 02:04:34;;;;;;;5.53;1.98;;;7.60;71.60;;;;;;2312554;55;20945;-72
2021/12/08 02:07:01;;;;;;;3.53;1.40;;;7.60;71.60;;;;;;2315466;55;20965;-70
2021/12/08 02:09:27;;;;;;;2.92;1.33;;;7.60;71.70;;;;;;2548662;54;21844;-71
2021/12/08 02:11:56;;;;;;;4.97;1.35;;;7.50;71.60;;;;;;2312949;54;21848;-73
2021/12/08 02:14:25;;;;;;;2.47;1.00;;;7.50;71.60;;;;;;2322101;54;20991;-71
2021/12/08 02:16:52;;;;;;;3.20;0.98;;;7.50;71.50;;;;;;2320033;54;20979;-72
2021/12/08 02:19:22;;;;;;;2.50;1.00;;;7.50;71.60;;;;;;2315942;54;20943;-72
2021/12/08 02:21:52;;;;;;;3.03;1.10;;;7.50;71.70;;;;;;2340018;54;20957;-70
2021/12/08 02:24:19;;;;;;;3.17;1.45;;;7.50;71.70;;;;;;2339729;54;20925;-71
2021/12/08 02:26:50;;;;;;;4.28;1.35;;;7.50;71.70;;;;;;2333974;54;21070;-72
2021/12/08 02:29:30;;;;;;;3.25;1.42;;;7.50;71.70;;;;;;2317507;54;21880;-72
2021/12/08 02:32:04;;;;;;;2.62;1.12;;;7.50;71.80;;;;;;2325134;54;21442;-71
2021/12/08 02:53:00;;;;;;;2.22;0.80;;;7.50;72.10;;;;;;2553253;54;21016;-72
2021/12/08 02:55:28;;;;;;;3.90;1.20;;;7.60;72.00;;;;;;2312673;54;21801;-71
2021/12/08 02:57:55;;;;;;;2.10;0.93;;;7.50;72.10;;;;;;2312076;53;20964;-72
2021/12/08 03:00:25;;;;;;;2.95;1.23;;;7.50;72.20;;;;;;2552913;54;21011;-72
2021/12/08 03:02:53;;;;;;;2.85;1.12;;;7.50;72.30;;;;;;2297247;54;20955;-70
2021/12/08 03:05:19;;;;;;;2.80;1.30;;;7.50;72.40;;;;;;2307696;54;20951;-71
2021/12/08 03:07:45;;;;;;;2.90;1.30;;;7.50;72.50;;;;;;2317500;54;20979;-72
2021/12/08 03:10:13;;;;;;;2.65;1.10;;;7.50;73.30;;;;;;2316971;54;20931;-72
2021/12/08 03:12:40;;;;;;;2.90;1.20;;;7.50;72.60;;;;;;2294004;55;21406;-70
2021/12/08 03:15:08;;;;;;;2.95;1.48;;;7.50;72.60;;;;;;2313510;54;20967;-70
2021/12/08 03:17:34;;;;;;;3.35;1.45;;;7.60;73.00;;;;;;2297700;55;21762;-71
2021/12/08 03:20:16;;;;;;;2.70;1.27;;;7.50;72.60;;;;;;2310807;54;20935;-70
2021/12/08 03:22:46;;;;;;;2.87;1.25;;;7.60;72.70;;;;;;2313707;54;20976;-72
2021/12/08 03:25:16;;;;;;;3.17;1.62;;;7.60;72.70;;;;;;2315674;54;21992;-71
2021/12/08 03:27:53;;;;;;;2.87;1.60;;;7.60;72.70;;;;;;2310392;54;20990;-72
2021/12/08 03:30:27;;;;;;;4.55;1.50;;;7.60;72.70;;;;;;2316978;54;20947;-71
2021/12/08 03:32:57;;;;;;;3.30;1.60;;;7.60;72.70;;;;;;2546904;54;21011;-71
2021/12/08 03:35:23;;;;;;;3.47;1.87;;;7.60;72.60;;;;;;2311361;54;21003;-69
2021/12/08 03:37:49;;;;;;;3.22;1.55;;;7.60;72.70;;;;;;2313077;54;20973;-72
2021/12/08 03:40:21;;;;;;;4.47;1.67;;;7.60;72.80;;;;;;2313288;54;21014;-73
2021/12/08 03:42:48;;;;;;;3.12;1.50;;;7.60;72.80;;;;;;2312986;54;20951;-71
2021/12/08 03:45:34;;;;;;;3.10;1.20;;;7.60;72.80;;;;;;2312763;54;21899;-71
2021/12/08 03:48:06;;;;;;;3.97;1.42;;;7.60;72.90;;;;;;2314095;54;21133;-70
2021/12/08 03:50:39;;;;;;;2.33;1.40;;;7.60;73.00;;;;;;2312675;54;20951;-71
2021/12/08 03:53:06;;;;;;;3.35;1.42;;;7.60;72.90;;;;;;2312711;54;21023;-70
2021/12/08 03:55:34;;;;;;;2.92;1.52;;;7.60;72.90;;;;;;2291682;54;21014;-72
2021/12/08 03:58:00;;;;;;;3.08;1.58;;;7.60;73.00;;;;;;2310357;54;21011;-72
2021/12/08 04:00:31;;;;;;;4.28;1.50;;;7.60;73.10;;;;;;2539898;54;20964;-71
2021/12/08 04:02:58;;;;;;;2.92;1.48;;;7.60;73.30;;;;;;2296422;54;20977;-72
2021/12/08 04:05:39;;;;;;;4.72;1.52;;;7.60;73.30;;;;;;2549163;54;20980;-72
2021/12/08 04:08:20;;;;;;;3.40;1.55;;;7.60;73.20;;;;;;2313244;55;20982;-71
2021/12/08 04:10:52;;;;;;;3.53;1.83;;;7.70;73.10;;;;;;2313301;55;20957;-71
2021/12/08 04:13:20;;;;;;;3.80;1.90;;;7.70;73.60;;;;;;2312673;54;20956;-70
2021/12/08 04:15:47;;;;;;;3.67;1.87;;;7.60;72.90;;;;;;2313219;54;20944;-71
2021/12/08 04:18:13;;;;;;;3.60;1.67;;;7.60;73.00;;;;;;2559115;53;21363;-72
2021/12/08 04:20:53;;;;;;;3.15;1.80;;;7.60;73.10;;;;;;2312867;55;20951;-72
2021/12/08 04:23:20;;;;;;;3.08;1.60;;;7.60;73.10;;;;;;2312728;55;20928;-70
2021/12/08 04:25:49;;;;;;;2.65;1.35;;;7.60;73.20;;;;;;2324700;54;21037;-70
2021/12/08 04:28:23;;;;;;;3.95;1.80;;;7.60;73.30;;;;;;2538608;54;21052;-70
2021/12/08 04:31:07;;;;;;;3.78;1.95;;;7.60;73.30;;;;;;2550897;54;20940;-72
2021/12/08 04:33:35;;;;;;;5.10;2.10;;;7.70;73.30;;;;;;2312884;54;21063;-73
2021/12/08 04:36:01;;;;;;;4.00;2.20;;;7.60;73.20;;;;;;2551785;53;21045;-73
2021/12/08 04:38:34;;;;;;;4.47;1.98;;;7.70;73.30;;;;;;2310211;54;20934;-70
2021/12/08 04:41:07;;;;;;;3.72;1.77;;;7.60;73.30;;;;;;2551641;54;21014;-71
2021/12/08 04:43:49;;;;;;;5.15;2.00;;;7.60;73.30;;;;;;2309000;54;21010;-72
2021/12/08 05:01:10;;;;;;;2.87;1.60;;;7.80;74.90;;;;;;2328934;54;21013;-71
2021/12/08 05:04:23;;;;;;;4.22;1.55;;;7.90;75.10;;;;;;2580519;53;20985;-70
2021/12/08 05:12:04;;;;;;;2.70;1.40;;;8.00;75.40;;;;;;2584961;53;22021;-73
2021/12/08 05:14:54;;;;;;;3.20;1.48;;;8.10;75.40;;;;;;2316712;54;21343;-71
2021/12/08 05:17:29;;;;;;;3.62;1.40;;;8.20;75.60;;;;;;2340199;54;20945;-71
2021/12/08 05:19:58;;;;;;;5.18;1.48;;;8.20;75.60;;;;;;2538176;53;21098;-72
2021/12/08 05:22:42;;;;;;;2.60;1.40;;;8.20;75.60;;;;;;2313797;54;20947;-71
2021/12/08 05:25:10;;;;;;;3.67;1.40;;;8.20;75.60;;;;;;2328782;54;21066;-73
2021/12/08 05:27:43;;;;;;;2.97;1.60;;;8.30;75.70;;;;;;2564335;53;21028;-70
2021/12/08 05:31:13;;;;;;;2.75;1.58;;;8.40;75.70;;;;;;2585453;53;21450;-73
2021/12/08 05:33:40;;;;;;;3.22;1.60;;;8.40;75.30;;;;;;2585384;53;20952;-70
2021/12/08 05:36:07;;;;;;;2.22;1.12;;;8.40;75.40;;;;;;2339445;54;21044;-72
2021/12/08 05:38:33;;;;;;;2.25;1.10;;;8.40;75.40;;;;;;2585465;53;21535;-70
2021/12/08 05:41:37;;;;;;;3.97;1.10;;;8.50;75.60;;;;;;2339231;54;21912;-71
2021/12/08 05:44:04;;;;;;;2.40;1.30;;;8.50;75.60;;;;;;2316549;54;22374;-71
2021/12/08 05:46:31;;;;;;;1.92;0.90;;;8.50;75.70;;;;;;2334927;54;21038;-70
2021/12/08 05:48:58;;;;;;;1.87;0.98;;;8.60;75.80;;;;;;2323582;54;21742;-70
2021/12/08 05:51:29;;;;;;;2.10;1.00;;;8.60;75.60;;;;;;2335518;54;21017;-74
2021/12/08 05:54:01;;;;;;;2.37;1.00;;;8.60;75.50;;;;;;2562051;53;21044;-70
2021/12/08 05:56:27;;;;;;;1.98;0.90;;;8.70;75.50;;;;;;2326044;54;21518;-71
2021/12/08 05:58:58;;;;;;;2.10;0.80;;;8.70;75.50;;;;;;2330456;54;21017;-71
2021/12/08 06:01:35;;;;;;;2.28;0.98;;;8.70;75.60;;;;;;2338978;54;20981;-70
2021/12/08 06:04:02;;;;;;;2.20;1.10;;;8.80;75.80;;;;;;2585135;53;20976;-71
2021/12/08 06:06:30;;;;;;;4.45;1.15;;;8.80;75.80;;;;;;2339460;54;20937;-71
2021/12/08 06:08:57;;;;;;;2.53;1.30;;;8.80;75.80;;;;;;2585369;53;20960;-71
2021/12/08 06:11:25;;;;;;;2.75;1.25;;;8.80;75.70;;;;;;2335140;54;20993;-71
2021/12/08 06:13:51;;;;;;;2.28;1.10;;;8.90;75.70;;;;;;2338363;54;20945;-73
2021/12/08 06:16:21;;;;;;;1.80;0.80;;;8.90;75.60;;;;;;2585056;53;20917;-70
2021/12/08 06:18:51;;;;;;;2.22;1.00;;;8.90;75.50;;;;;;2332609;54;20931;-72
2021/12/08 06:21:20;;;;;;;3.20;1.42;;;8.90;75.40;;;;;;2320780;54;20989;-71
2021/12/08 06:23:46;;;;;;;3.30;1.65;;;9.00;75.40;;;;;;2544082;54;20955;-72
2021/12/08 06:26:16;;;;;;;3.17;1.50;;;9.00;75.40;;;;;;2320489;54;20957;-71
2021/12/08 06:28:43;;;;;;;3.30;1.60;;;9.00;75.30;;;;;;2316207;54;21091;-70
2021/12/08 06:31:11;;;;;;;3.62;1.60;;;9.00;75.30;;;;;;2321495;54;21039;-73
2021/12/08 06:33:37;;;;;;;2.53;1.15;;;9.00;75.30;;;;;;2335045;54;20950;-72
2021/12/08 06:36:08;;;;;;;2.65;1.33;;;9.10;75.30;;;;;;2321314;54;21021;-71
2021/12/08 06:38:34;;;;;;;2.58;1.33;;;9.10;75.40;;;;;;2339911;54;20957;-71
2021/12/08 06:41:22;;;;;;;3.15;1.55;;;9.10;75.30;;;;;;2327215;54;21046;-70
2021/12/08 06:43:52;;;;;;;3.00;1.70;;;9.10;75.30;;;;;;2582400;53;20992;-71
2021/12/08 06:46:19;;;;;;;3.65;1.37;;;9.10;75.30;;;;;;2556927;53;21038;-72
2021/12/08 06:48:48;;;;;;;3.00;1.50;;;9.20;75.30;;;;;;2554274;53;21040;-73
2021/12/08 06:51:17;;;;;;;3.03;1.50;;;9.20;75.20;;;;;;2545391;54;21038;-71
2021/12/08 06:53:45;;;;;;;2.60;1.17;;;9.20;75.20;;;;;;2336583;54;20979;-71
2021/12/08 06:56:21;;;;;;;3.10;1.33;;;9.20;75.10;;;;;;2339503;54;20945;-72
2021/12/08 06:58:48;;;;;;;2.85;1.33;;;9.30;75.20;;;;;;2323734;54;20979;-71
2021/12/08 07:01:58;;;;;;;;;;;;;;;;;;;;;
2021/12/08 07:05:07;;;;;;;2.78;1.12;;;9.30;74.90;;;;;;2576190;53;20961;-74
2021/12/08 07:07:33;;;;;;;2.65;1.10;;;9.30;74.90;;;;;;2553471;54;21086;-72
2021/12/08 07:10:35;;;;;;;2.12;1.00;;;9.30;74.90;;;;;;2547434;54;20998;-71
2021/12/08 07:13:10;;;;;;;2.95;1.40;;;9.30;74.50;;;;;;2293186;55;21027;-73
2021/12/08 07:17:30;;;;;;;3.10;1.58;;;9.30;74.70;;;;;;2580419;53;20980;-71
2021/12/08 07:20:33;;;;;;;2.30;1.17;;;9.40;74.20;;;;;;2315061;54;20968;-71
2021/12/08 07:22:59;;;;;;;2.90;1.48;;;9.30;74.30;;;;;;2300311;55;21005;-71
2021/12/08 07:25:27;;;;;;;3.78;1.75;;;9.30;74.30;;;;;;2340031;54;20997;-72
2021/12/08 07:27:53;;;;;;;3.50;2.10;;;9.30;74.30;;;;;;2585872;53;21755;-72
2021/12/08 07:30:22;;;;;;;3.60;2.05;;;9.30;74.40;;;;;;2585383;53;21011;-73
2021/12/08 07:32:48;;;;;;;3.80;2.10;;;9.30;74.50;;;;;;2339610;54;21004;-74
2021/12/08 07:35:53;;;;;;;3.95;2.12;;;9.30;74.50;;;;;;2583909;53;20941;-72
2021/12/08 07:38:22;;;;;;;3.15;1.65;;;9.30;74.40;;;;;;2340418;54;20916;-74
2021/12/08 07:40:54;;;;;;;3.00;1.48;;;9.30;74.40;;;;;;2333877;54;20958;-72
2021/12/08 07:43:21;;;;;;;;;;;9.30;74.50;;;;;;2328856;54;21001;-73
2021/12/08 07:46:39;;;;;;;2.83;1.30;;;9.30;73.90;;;;;;2320530;54;20072;-74
2021/12/08 07:49:52;;;;;;;3.85;1.35;;;9.30;74.50;;;;;;2341110;54;20973;-71
2021/12/08 07:52:29;;;;;;;2.35;1.00;;;9.30;74.10;;;;;;2339524;54;20953;-72
2021/12/08 07:54:56;;;;;;;3.53;1.20;;;9.40;74.60;;;;;;2316837;54;21486;-74
2021/12/08 07:57:26;;;;;;;3.67;1.15;;;9.30;74.70;;;;;;2339463;54;21532;-71
2021/12/08 07:59:58;;;;;;;2.35;1.15;;;9.30;74.50;;;;;;2340393;54;20933;-70
2021/12/08 08:02:25;;;;;;;2.80;1.30;;;9.30;74.50;;;;;;2339313;54;21012;-72
2021/12/08 08:04:52;;;;;;;2.45;0.90;;;9.40;74.70;;;;;;2339742;54;20981;-73
2021/12/08 08:07:19;;;;;;;2.30;0.88;;;9.40;74.70;;;;;;2324753;54;21034;-72
2021/12/08 08:09:47;;;;;;;3.17;1.27;;;9.40;74.70;;;;;;2558662;53;21011;-73
2021/12/08 08:12:17;;;;;;;4.18;1.25;;;9.40;74.70;;;;;;2328593;54;20949;-71
2021/12/08 08:14:50;;;;;;;2.35;1.10;;;9.40;74.60;;;;;;2322051;54;20958;-71
2021/12/08 08:17:18;;;;;;;3.28;1.35;;;9.40;74.60;;;;;;2324332;54;21758;-70
2021/12/08 08:19:45;;;;;;;2.80;1.30;;;9.40;74.50;;;;;;2328677;54;20968;-73
2021/12/08 08:22:18;;;;;;;2.72;1.00;;;9.40;74.50;;;;;;2585628;53;21021;-73
2021/12/08 08:24:45;;;;;;;3.25;1.12;;;9.40;74.40;;;;;;2342423;54;20977;-71
2021/12/08 08:27:12;;;;;;;4.18;1.80;;;9.40;74.50;;;;;;2554354;53;20972;-71
2021/12/08 08:29:39;;;;;;;3.42;1.30;;;9.40;74.40;;;;;;2577818;53;20991;-71
2021/12/08 08:32:11;;;;;;;4.07;1.30;;;9.40;74.40;;;;;;2561314;53;21012;-71
2021/12/08 08:34:40;;;;;;;4.35;1.30;;;9.40;74.30;;;;;;2316551;55;20965;-73
2021/12/08 08:37:10;;;;;;;3.45;0.90;;;9.50;74.50;;;;;;2317053;54;20968;-71
2021/12/08 08:39:38;;;;;;;2.12;0.88;;;9.40;74.30;;;;;;2331806;54;21511;-73
2021/12/08 08:42:24;;;;;;;3.28;1.15;;;9.50;74.40;;;;;;2325817;54;20996;-72
2021/12/08 08:45:12;;;;;;;3.25;1.50;;;9.40;74.10;;;;;;2340002;54;20937;-71
2021/12/08 08:47:47;;;;;;;19.10;5.65;;;9.50;74.30;;;;;;2553201;53;21528;-72
2021/12/08 08:50:22;;;;;;;16.25;7.05;;;9.50;74.30;;;;;;2340089;54;20941;-72
2021/12/08 08:52:53;;;;;;;15.63;6.45;;;9.50;74.30;;;;;;2339219;54;21548;-71
2021/12/08 08:55:48;;;;;;;8.75;4.00;;;9.50;74.30;;;;;;2582954;53;20953;-72
2021/12/08 08:58:15;;;;;;;6.78;2.90;;;9.50;75.00;;;;;;2569543;53;20959;-72
2021/12/08 09:00:51;;;;;;;5.53;1.90;;;9.50;74.40;;;;;;2326583;54;20964;-72
2021/12/08 09:03:20;;;;;;;3.50;1.20;;;9.50;74.40;;;;;;2320524;54;21001;-71
2021/12/08 09:05:52;;;;;;;3.90;1.67;;;9.50;74.40;;;;;;2335141;54;21020;-73
2021/12/08 09:08:22;;;;;;;3.37;1.40;;;9.50;74.40;;;;;;2585521;53;21837;-71
2021/12/08 09:11:01;;;;;;;3.47;1.37;;;9.50;74.40;;;;;;2340211;54;21008;-72
2021/12/08 09:13:35;;;;;;;4.25;1.70;;;9.50;74.20;;;;;;2585964;53;21825;-73
2021/12/08 09:16:07;;;;;;;3.80;1.50;;;9.60;74.20;;;;;;2584868;53;21092;-72
2021/12/08 09:18:41;;;;;;;;;;;9.60;74.20;;;;;;2323039;54;21433;-72
2021/12/08 09:21:17;;;;;;;2.15;0.80;;;9.60;73.50;;;;;;2585138;53;20121;-72
2021/12/08 09:24:02;;;;;;;1.77;0.62;;;9.60;74.20;;;;;;2330390;54;21011;-72
2021/12/08 09:26:30;;;;;;;5.10;2.00;;;9.60;74.10;;;;;;2337258;54;20984;-71
2021/12/08 09:29:00;;;;;;;4.20;1.92;;;9.60;74.40;;;;;;2552523;53;20982;-72
2021/12/08 09:31:42;;;;;;;5.00;1.80;;;9.60;74.30;;;;;;2336535;54;20965;-71
2021/12/08 09:34:20;;;;;;;;;;;9.60;74.20;;;;;;2589785;53;21572;-73
2021/12/08 09:36:55;;;;;;;3.83;0.95;;;9.70;73.60;;;;;;2586105;53;20094;-72
2021/12/08 09:39:41;;;;;;;2.58;0.90;;;9.70;74.40;;;;;;2339895;54;21508;-72
2021/12/08 09:42:39;;;;;;;1.48;0.60;;;9.70;74.10;;;;;;2316590;54;20909;-74
2021/12/08 09:45:12;;;;;;;2.70;0.75;;;9.70;73.80;;;;;;2585263;53;20913;-72
2021/12/08 09:47:38;;;;;;;2.30;0.50;;;9.70;74.10;;;;;;2555657;53;21065;-74
2021/12/08 09:50:06;;;;;;;2.03;0.73;;;9.70;74.10;;;;;;2326082;54;20956;-73
2021/12/08 09:52:37;;;;;;;1.12;0.47;;;9.70;74.10;;;;;;2331513;54;20921;-74
2021/12/08 09:55:05;;;;;;;1.85;0.55;;;9.70;74.10;;;;;;2585580;53;21028;-72
2021/12/08 09:57:31;;;;;;;1.95;0.60;;;9.70;74.00;;;;;;2585216;53;21040;-73
2021/12/08 09:59:57;;;;;;;1.48;0.60;;;9.70;74.00;;;;;;2340959;54;20965;-71
2021/12/08 10:02:33;;;;;;;1.12;0.50;;;9.80;74.10;;;;;;2585611;53;20976;-73
2021/12/08 10:05:14;;;;;;;1.85;0.60;;;9.80;74.10;;;;;;2339861;54;21553;-71
2021/12/08 10:07:40;;;;;;;1.87;0.70;;;9.80;74.20;;;;;;2585527;53;20941;-74
2021/12/08 10:10:08;;;;;;;3.17;1.00;;;9.80;74.30;;;;;;2585715;53;21529;-71
2021/12/08 10:12:36;;;;;;;4.15;1.15;;;9.80;74.40;;;;;;2548459;53;20893;-73
2021/12/08 10:15:05;;;;;;;3.03;1.27;;;9.90;74.60;;;;;;2330633;54;21433;-72
2021/12/08 10:17:33;;;;;;;3.90;1.40;;;9.90;74.60;;;;;;2339403;54;20924;-73
2021/12/08 10:20:28;;;;;;;5.45;1.70;;;9.90;74.50;;;;;;2325761;54;20947;-72
2021/12/08 10:23:17;;;;;;;2.22;0.90;;;10.00;73.20;;;;;;2338868;54;21697;-74
2021/12/08 10:25:50;;;;;;;4.28;1.55;;;10.00;73.30;;;;;;2539621;54;21608;-74
2021/12/08 10:28:21;;;;;;;;;;;10.00;73.50;;;;;;2330935;54;20948;-74
2021/12/08 10:31:27;;;;;;;3.55;1.33;;;10.10;72.60;;;;;;2339828;54;20078;-72
2021/12/08 10:34:06;;;;;;;2.35;1.00;;;10.10;72.80;;;;;;2341852;54;20989;-73
2021/12/08 10:37:29;;;;;;;60.50;23.80;;;10.10;73.10;;;;;;2556945;53;21654;-74
2021/12/08 10:39:59;;;;;;;32.10;12.25;;;10.10;73.00;;;;;;2320997;55;21013;-73
2021/12/08 10:42:29;;;;;;;17.25;7.97;;;10.20;73.10;;;;;;2330895;54;21093;-72
2021/12/08 10:45:22;;;;;;;11.18;5.18;;;10.20;73.00;;;;;;2330921;54;21018;-73
2021/12/08 10:47:55;;;;;;;8.25;2.80;;;10.20;72.50;;;;;;2334041;54;20953;-72
2021/12/08 10:56:06;;;;;;;5.55;1.70;;;10.20;72.90;;;;;;2586429;53;20932;-73
2021/12/08 10:58:35;;;;;;;3.92;1.83;;;10.30;73.00;;;;;;2578444;53;20978;-72
2021/12/08 11:01:18;;;;;;;4.00;1.30;;;10.30;73.00;;;;;;2324140;54;20963;-72
2021/12/08 11:03:45;;;;;;;2.87;1.20;;;10.30;72.90;;;;;;2340209;54;21822;-72
2021/12/08 11:06:15;;;;;;;2.05;0.85;;;10.30;73.10;;;;;;2339327;54;20994;-74
2021/12/08 11:08:45;;;;;;;3.20;1.00;;;10.30;73.20;;;;;;2340815;54;20952;-73
2021/12/08 11:11:22;;;;;;;2.12;0.77;;;10.40;73.20;;;;;;2321005;54;20956;-72
2021/12/08 11:13:55;;;;;;;3.10;0.98;;;10.20;72.80;;;;;;2564234;53;20925;-74
2021/12/08 11:16:35;;;;;;;2.42;0.80;;;10.40;72.70;;;;;;2340694;54;20948;-72
2021/12/08 11:19:06;;;;;;;2.45;0.90;;;10.40;72.30;;;;;;2325981;54;20990;-74
2021/12/08 11:21:37;;;;;;;2.17;0.88;;;10.40;72.60;;;;;;2580801;53;20981;-74
2021/12/08 11:24:34;;;;;;;1.90;0.80;;;10.40;72.60;;;;;;2585555;53;21012;-73
2021/12/08 11:27:03;;;;;;;3.12;1.12;;;10.40;72.40;;;;;;2339954;54;21055;-74
2021/12/08 11:29:31;;;;;;;3.37;1.48;;;10.40;72.60;;;;;;2585292;53;21421;-73
2021/12/08 11:32:18;;;;;;;5.43;2.25;;;10.40;72.60;;;;;;2338359;54;21487;-75
2021/12/08 11:34:46;;;;;;;7.25;2.90;;;10.40;72.10;;;;;;2560252;53;20985;-74
2021/12/08 11:37:25;;;;;;;8.50;3.40;;;10.40;72.50;;;;;;2326410;54;20973;-72
2021/12/08 11:39:55;;;;;;;9.82;4.28;;;10.40;72.60;;;;;;2586149;53;20945;-74
2021/12/08 11:42:23;;;;;;;13.82;5.82;;;10.40;72.60;;;;;;2328594;54;20978;-72
2021/12/08 11:44:51;;;;;;;16.10;7.10;;;10.40;72.60;;;;;;2333336;54;20961;-73
2021/12/08 11:47:21;;;;;;;13.35;6.15;;;10.50;72.70;;;;;;2586127;53;21016;-72
2021/12/08 11:49:53;;;;;;;10.70;5.43;;;10.50;72.70;;;;;;2558628;53;1518938;-74
2021/12/08 11:52:23;;;;;;;10.05;5.65;;;10.50;72.50;;;;;;2338183;54;20978;-73
2021/12/08 11:55:00;;;;;;;7.47;3.55;;;10.50;72.50;;;;;;2327174;54;20957;-72
2021/12/08 11:57:37;;;;;;;6.78;3.60;;;10.50;72.50;;;;;;2586149;53;21016;-74
2021/12/08 12:01:11;;;;;;;12.70;6.00;;;10.50;72.80;;;;;;2329164;54;21597;-73
2021/12/08 12:03:38;;;;;;;29.15;11.75;;;10.50;72.20;;;;;;2339988;54;20930;-74
2021/12/08 12:06:05;;;;;;;24.02;10.82;;;10.50;72.30;;;;;;2340015;54;21079;-73
2021/12/08 12:08:34;;;;;;;16.10;7.37;;;10.50;72.30;;;;;;2340218;54;21044;-72
2021/12/08 12:11:03;;;;;;;22.00;11.63;;;10.50;72.20;;;;;;2551394;54;21012;-75
2021/12/08 12:13:29;;;;;;;16.77;9.25;;;10.50;72.10;;;;;;2309028;53;20967;-74
2021/12/08 12:15:56;;;;;;;10.40;6.62;;;10.50;72.00;;;;;;2313349;54;21554;-74
2021/12/08 12:18:23;;;;;;;9.50;5.20;;;10.50;72.00;;;;;;2313180;54;21020;-73
2021/12/08 12:20:59;;;;;;;11.43;6.00;;;10.50;72.10;;;;;;2553012;53;20939;-74
2021/12/08 12:25:14;;;;;;;12.65;6.85;;;10.50;71.90;;;;;;2553091;54;20940;-73
2021/12/08 12:31:50;;;;;;;8.75;4.37;;;10.50;71.70;;;;;;2320737;54;20966;-74
2021/12/08 12:34:25;;;;;;;3.22;1.50;;;10.50;71.00;;;;;;2334360;54;21050;-72
2021/12/08 12:36:51;;;;;;;3.65;1.60;;;10.50;71.70;;;;;;2566365;53;21037;-72
2021/12/08 12:39:19;;;;;;;3.35;1.45;;;10.50;71.80;;;;;;2585165;53;21848;-73
2021/12/08 12:42:00;;;;;;;6.00;1.90;;;10.50;72.50;;;;;;2321318;54;21941;-71
2021/12/08 12:44:30;;;;;;;3.53;1.30;;;10.50;71.70;;;;;;2554648;53;21579;-72
2021/12/08 12:47:15;;;;;;;2.15;0.88;;;10.50;72.00;;;;;;2581852;53;21091;-74
2021/12/08 12:49:46;;;;;;;2.65;1.10;;;10.50;71.90;;;;;;2339787;54;21056;-73
2021/12/08 12:52:15;;;;;;;1.48;0.80;;;10.50;72.10;;;;;;2315935;54;20994;-73
2021/12/08 12:54:42;;;;;;;2.35;0.93;;;10.50;72.00;;;;;;2322097;54;20922;-72
2021/12/08 12:57:09;;;;;;;2.22;0.88;;;10.60;72.20;;;;;;2570731;53;20988;-74
2021/12/08 12:59:53;;;;;;;3.47;1.00;;;10.50;72.00;;;;;;2317123;54;21636;-72
2021/12/08 13:02:31;;;;;;;3.25;0.90;;;10.50;71.70;;;;;;2322699;54;21072;-73
2021/12/08 13:05:10;;;;;;;2.17;0.80;;;10.50;71.90;;;;;;2563252;53;20954;-72
2021/12/08 13:07:39;;;;;;;1.95;0.90;;;10.60;72.10;;;;;;2313259;54;20918;-73
2021/12/08 13:10:13;;;;;;;2.40;0.98;;;10.60;72.20;;;;;;2585642;53;21493;-72
2021/12/08 13:12:43;;;;;;;2.95;0.73;;;10.60;72.10;;;;;;2585085;53;21528;-73
2021/12/08 13:15:25;;;;;;;2.65;0.60;;;10.60;72.30;;;;;;2585474;53;20973;-73
2021/12/08 13:18:11;;;;;;;1.98;0.70;;;10.60;71.80;;;;;;2333753;54;21872;-74
2021/12/08 13:20:41;;;;;;;2.00;0.65;;;10.60;71.70;;;;;;2328625;54;21402;-72
2021/12/08 13:23:08;;;;;;;3.00;0.80;;;10.60;72.00;;;;;;2323346;54;21860;-73
2021/12/08 13:29:00;;;;;;;2.40;0.80;;;10.60;71.60;;;;;;2584843;53;21040;-72
2021/12/08 13:31:38;;;;;;;1.75;0.57;;;10.60;71.70;;;;;;2339518;54;20964;-74
2021/12/08 13:34:06;;;;;;;1.55;0.60;;;10.60;71.70;;;;;;2338752;54;21040;-74
2021/12/08 13:36:37;;;;;;;2.85;0.95;;;10.60;71.60;;;;;;2318435;54;20946;-73
2021/12/08 13:39:12;;;;;;;3.70;0.93;;;10.60;71.50;;;;;;2339093;54;20945;-74
2021/12/08 13:41:39;;;;;;;1.45;0.60;;;10.60;71.50;;;;;;2303149;55;21025;-74
2021/12/08 13:44:23;;;;;;;3.00;0.85;;;10.60;71.60;;;;;;2576074;53;20909;-72
2021/12/08 13:46:53;;;;;;;1.80;0.52;;;10.50;71.00;;;;;;2334889;54;21039;-73
2021/12/08 13:49:27;;;;;;;1.23;0.52;;;10.50;71.40;;;;;;2321296;54;20996;-73
2021/12/08 13:55:27;;;;;;;3.58;1.00;;;10.50;71.20;;;;;;2554203;53;20998;-75
2021/12/08 13:58:17;;;;;;;2.83;0.55;;;10.50;70.40;;;;;;2339713;54;21852;-74
2021/12/08 14:00:46;;;;;;;3.78;0.90;;;10.50;70.90;;;;;;2569964;53;21822;-73
2021/12/08 14:03:21;;;;;;;2.00;0.80;;;10.40;71.40;;;;;;2326914;54;21012;-74
2021/12/08 14:05:55;;;;;;;2.70;0.90;;;10.40;71.50;;;;;;2325763;54;21004;-73
2021/12/08 14:08:34;;;;;;;2.65;1.30;;;10.40;71.50;;;;;;2332092;54;20985;-72
2021/12/08 14:11:04;;;;;;;4.93;1.62;;;10.40;71.40;;;;;;2584896;53;21307;-74
2021/12/08 14:13:32;;;;;;;4.10;1.42;;;10.40;71.70;;;;;;2316733;54;21942;-73
2021/12/08 14:16:01;;;;;;;3.03;1.50;;;10.40;71.80;;;;;;2316156;54;20946;-74
2021/12/08 14:18:34;;;;;;;3.37;1.42;;;10.40;71.90;;;;;;2584205;53;21762;-72
2021/12/08 14:21:06;;;;;;;4.53;1.80;;;10.30;71.70;;;;;;2339219;54;20948;-73
2021/12/08 14:23:42;;;;;;;3.47;1.63;;;10.30;71.70;;;;;;2339785;54;20969;-73
2021/12/08 14:26:18;;;;;;;3.50;1.67;;;10.30;71.60;;;;;;2339413;54;20993;-72
2021/12/08 14:28:55;;;;;;;6.62;2.10;;;10.40;71.70;;;;;;2342714;54;20937;-72
2021/12/08 14:31:30;;;;;;;4.57;2.12;;;10.30;71.50;;;;;;2339253;54;21001;-74
2021/12/08 14:34:58;;;;;;;4.00;1.98;;;10.30;71.70;;;;;;2339602;54;20985;-73